AirNav   TITAN Aviation Fuels
 
 1388 users online  

CA84 Torrey Pines Gliderport
San Diego, California, USA

GOING TO SAN DIEGO?


FAA INFORMATION EFFECTIVE 01 DECEMBER 2022

Location

FAA Identifier: CA84
Lat/Long: 32-53-23.0000N 117-14-49.0000W
32-53.383333N 117-14.816667W
32.8897222,-117.2469444
(estimated)
Elevation: 372 ft. / 113 m (estimated)
Variation: 13E (1985)
From city: 11 miles NW of SAN DIEGO, CA
Time zone: UTC -8 (UTC -7 during Daylight Saving Time)
Zip code: 92037

Gliderport Operations

Gliderport use: Private use. Permission required prior to landing
Activation date: 11/1961
Control tower: no
ARTCC: LOS ANGELES CENTER
FSS: SAN DIEGO FLIGHT SERVICE STATION
Attendance: UNATNDD
Wind indicator: no
Segmented circle: no

Gliderport Communications

WX ASOS at MYF (7 nm SE): 126.9 (858-576-4337)
WX ASOS at SAN (10 nm S): PHONE 619-296-8934
WX AWOS-3P at SEE (14 nm E): 125.45 (619-449-1228)
WX ASOS at CRQ (14 nm N): PHONE 760-930-0864
WX ASOS at RNM (19 nm NE): PHONE 760-789-7699

Nearby radio navigation aids

VOR radial/distance  VOR name  Freq  Var
MZBr335/6.5MISSION BAY VORTAC117.8015E
PGYr307/21.5POGGI VORTAC116.4514E
OCNr143/22.7OCEANSIDE VORTAC115.3015E
TIJr313/25.7TIJUANA VOR/DME116.5012E
JLIr231/36.5JULIAN VORTAC114.0015E

Gliderport Services

Airframe service: NONE
Powerplant service: NONE

Runway Information

Runway 9/27

Dimensions: 1500 x 30 ft. / 457 x 9 m
Surface: asphalt
RUNWAY 9  RUNWAY 27
Traffic pattern: leftleft
Obstructions: nonetrees, 100 ft. from runway

Gliderport Ownership and Management from official FAA records

Ownership: Publicly-owned
Owner: CITY OF SAN DIEGO
202 C STREET MS 2A
SAN DIEGO, CA 92101
Manager: MAX MARIEN
2800 TORREY PINES SCENIC DRIVE
JO JOLLA, CA 92037
Phone 858-452-9858
WORK PHONE 619-535-9505 EXT 1585

Additional Remarks

GLIDER PORT IS LEASED FM CITY TO THE ASSOCD GLIDER CLUB OF SOUTHERN CALIF FOR STUDENT TRAINING & RIDGE SOARING.
ALL ACFT ARE TRAILERED GLIDERS.
ROLLING RWY .6 PERCENT GRADIENT.
EXTENSIVE HANG GLIDER OPERATIONS ON WEEKENDS AND WEEKDAYS.
FOR CD CTC LOS ANGELES ARTCC AT 661-575-2079.

Instrument Procedures

There are no published instrument procedures at CA84.

Some nearby airports with instrument procedures:

KNKX - Miramar MCAS (Joe Foss Field) Airport (5 nm E)
KMYF - Montgomery-Gibbs Executive Airport (7 nm SE)
KSAN - San Diego International Airport (10 nm S)
KNZY - North Island Naval Air Station (Halsey Field) Airport (12 nm S)
KSEE - Gillespie Field Airport (14 nm E)
KCRQ - Mc Clellan-Palomar Airport (14 nm N)
KRNM - Ramona Airport (19 nm NE)
 
Loc | Ops | Rwys | IFR | FBO | Links
Com | Nav | Svcs | Stats | Notes
Area around CA84 (Torrey Pines Gliderport)
 
Road maps at: MapQuest Bing Google
 
Aerial photo
WARNING: Photo may not be current or correct
Aerial photo of CA84 (Torrey Pines Gliderport)
Photo by Doug Fronius
Photo taken 13-Mar-2004
from a 1942 Schweizer TG-2 sailplane.

Do you have a better or more recent aerial photo of Torrey Pines Gliderport that you would like to share? If so, please send us your photo.

 
Sectional chart

 
Airport distance calculator
Flying to Torrey Pines Gliderport? Find the distance to fly.

From to CA84

Sunrise and sunset
Times for 09-Dec-2022
 Local
(UTC-8)
 Zulu
(UTC)
Morning civil twilight06:1414:14
Sunrise06:4114:41
Sunset16:4200:42
Evening civil twilight17:0901:09

Current date and time
Zulu (UTC)  09-Dec-2022 15:38:00
Local (UTC-8)  09-Dec-2022 07:38:00
 
METAR
KNKX 
6nm E 
091455Z 08008KT 10SM CLR 04/03 A3017 RMK AO2 SLP215 T00440028 53002 $
KMYF 
7nm SE 
091453Z 00000KT 10SM CLR 05/03 A3018 RMK AO2 SLP219 T00500028 53003
KSAN 
10nm S 
091451Z 00000KT 10SM FEW025 07/04 A3020 RMK AO2 SLP226 T00720039 53003
KNZY 
11nm S 
091452Z 10004KT 10SM FEW025 FEW250 07/03 A3018 RMK AO2 SLP219 T00720033 53003
KCRQ 
15nm N 
091453Z AUTO 08003KT 10SM CLR 07/04 A3016 RMK AO2 SLP214 T00720039 53002
KSEE 
15nm E 
091447Z 00000KT 10SM SKC 03/02 A3019
KRNM 
19nm NE 
091453Z AUTO 00000KT 8SM CLR M02/M03 A3017 RMK AO2 SLP220 T10221033 53004
TAF
KNKX 
6nm E 
0909/1009 36005KT 9999 FEW020 QNH3018INS FM091730 02005KT 9999 SCT020 QNH3016INS FM092130 30008KT 9999 FEW025 QNH3008INS FM100030 31005KT 9999 SCT030 QNH3006INS T05/0913Z T16/0921Z
KSAN 
10nm S 
091120Z 0912/1018 VRB04KT P6SM FEW025 FM092000 30009KT P6SM FEW030 FM100200 VRB04KT P6SM SCT025 TEMPO 1011/1015 BKN025
KNZY 
11nm S 
0907/1007 VRB06KT 9999 SCT025 SCT250 QNH3015INS TEMPO 0909/0915 BKN025 BECMG 0917/0919 30010KT FEW025 SCT250 QNH3009INS BECMG 1001/1003 VRB06KT SCT025 SCT250 QNH3011INS T09/0914Z T17/0922Z FN00193
KCRQ 
15nm N 
091120Z 0912/1012 VRB04KT P6SM FEW025 FM092000 26008KT P6SM FEW030 FM100100 VRB04KT P6SM SCT025 TEMPO 1010/1012 BKN022
NOTAMs
Click for the latest NOTAMs
NOTAMs are issued by the DoD/FAA and will open in a separate window not controlled by AirNav.

 

 
 

Would you like to see your business listed on this page?

 If your business provides an interesting product or service to pilots, flight crews, aircraft, or users of the Torrey Pines Gliderport, you should consider listing it here.  To start the listing process, click on the button below
 
Add a business
 

Other Pages about Torrey Pines Gliderport

www.agcsc.org/torrey_pines_info.html
 
Update a link
 
Copyright © AirNav, LLC. All rights reserved. Privacy Policy  Contact